Mullinville, Kansas
Current Conditions -  °F | °C
As of 7:52 AM on Tuesday 21 Oct 2014 (Local Time) from KDDC Reporting Station
Moderate Fog Moderate Fog  
Wind Chill: 13°   Ceiling: 100
Heat Index: 13°   Visibility: 0.25mi
Dew Point: 12°   Wind: 8mph
Humidity: 93%   Direction: 130°SE
Pressure: 30.07"   Gusts: NA
Location:  37.59°N, 99.48°W
Report Text: KDDC 211252Z AUTO 13007KT 1/4SM FG VV001 13/12 A3007 RMK AO2 SLP171 T01330122
Loading
Personal Weather Stations






























Interactive Weather Map
Tropical Storm Tracking
New forecast layout! Learn more

10-Day Weather Forecast

Advertisements
Track Severe Weather on mobile